createdAt,value
2022-10-23T00:01:19.480Z,68.52
2022-10-23T00:03:46.786Z,68.74
2022-10-23T00:06:14.676Z,69.32
2022-10-23T00:08:41.989Z,69.44
2022-10-23T00:11:15.255Z,69.20
2022-10-23T00:13:41.927Z,68.96
2022-10-23T00:16:09.011Z,68.49
2022-10-23T00:18:37.147Z,68.62
2022-10-23T00:21:04.062Z,68.58
2022-10-23T00:23:30.704Z,68.79
2022-10-23T00:25:57.266Z,69.08
2022-10-23T00:28:24.160Z,68.96
2022-10-23T00:30:50.719Z,69.20
2022-10-23T00:33:17.340Z,68.56
2022-10-23T00:35:44.149Z,68.50
2022-10-23T00:38:11.269Z,68.52
2022-10-23T00:40:39.211Z,68.54
2022-10-23T00:43:10.434Z,68.97
2022-10-23T00:45:37.177Z,68.85
2022-10-23T00:48:04.785Z,68.79
2022-10-23T00:50:33.267Z,69.03
2022-10-23T00:53:03.273Z,68.76
2022-10-23T00:55:30.800Z,69.03
2022-10-23T00:57:57.441Z,69.16
2022-10-23T01:00:27.362Z,68.62
2022-10-23T01:02:55.119Z,69.32
2022-10-23T01:05:27.184Z,69.25
2022-10-23T01:07:58.802Z,68.92
2022-10-23T01:10:39.845Z,69.15
2022-10-23T01:13:26.302Z,68.92
2022-10-23T01:16:01.914Z,69.12
2022-10-23T01:18:49.679Z,69.31
2022-10-23T01:21:35.070Z,69.50
2022-10-23T01:24:32.522Z,69.44
2022-10-23T01:27:22.406Z,69.62
2022-10-23T01:30:01.668Z,69.46
2022-10-23T01:32:40.562Z,69.71
2022-10-23T01:35:16.702Z,69.77
2022-10-23T01:37:47.915Z,70.11
2022-10-23T01:40:24.394Z,70.30
2022-10-23T01:42:56.610Z,69.76
2022-10-23T01:45:39.750Z,69.35
2022-10-23T01:48:12.151Z,69.55
2022-10-23T01:50:41.148Z,69.86
2022-10-23T01:53:08.600Z,70.07
2022-10-23T01:55:39.081Z,69.92
2022-10-23T01:58:10.327Z,70.16
2022-10-23T02:00:42.175Z,70.36
2022-10-23T02:03:11.841Z,69.79
2022-10-23T02:05:39.331Z,69.32
2022-10-23T02:08:06.892Z,69.80
2022-10-23T02:10:59.028Z,69.64
2022-10-23T02:13:43.753Z,69.90
2022-10-23T02:16:33.997Z,70.42
2022-10-23T02:19:23.473Z,70.94
2022-10-23T02:21:56.216Z,70.82
2022-10-23T02:24:32.775Z,70.93
2022-10-23T02:27:04.076Z,70.92
2022-10-23T02:29:35.531Z,71.04
2022-10-23T02:32:02.217Z,70.92
2022-10-23T02:34:28.981Z,70.69
2022-10-23T02:36:56.273Z,71.06
2022-10-23T02:39:26.532Z,70.82
2022-10-23T02:41:52.977Z,71.25
2022-10-23T02:44:37.330Z,71.46
2022-10-23T02:47:36.724Z,71.33
2022-10-23T02:50:10.760Z,71.86
2022-10-23T02:52:51.425Z,71.36
2022-10-23T02:55:46.684Z,71.48
2022-10-23T02:58:16.397Z,71.49
2022-10-23T03:00:52.284Z,71.51
2022-10-23T03:03:31.690Z,71.09
2022-10-23T03:05:58.723Z,71.26
2022-10-23T03:08:25.395Z,71.30
2022-10-23T03:10:52.361Z,71.35
2022-10-23T03:13:20.654Z,71.36
2022-10-23T03:15:47.213Z,71.72
2022-10-23T03:18:14.964Z,71.13
2022-10-23T03:20:46.175Z,71.49
2022-10-23T03:23:14.366Z,71.83
2022-10-23T03:25:42.331Z,71.89
2022-10-23T03:28:10.839Z,71.93
2022-10-23T03:30:37.427Z,72.17
2022-10-23T03:33:04.137Z,72.17
2022-10-23T03:35:33.827Z,72.33
2022-10-23T03:38:01.493Z,72.08
2022-10-23T03:40:28.026Z,72.29
2022-10-23T03:42:54.729Z,71.89
2022-10-23T03:45:22.225Z,72.20
2022-10-23T03:47:50.763Z,72.42
2022-10-23T03:50:18.701Z,72.55
2022-10-23T03:52:45.806Z,72.44
2022-10-23T03:55:13.179Z,72.96
2022-10-23T03:57:39.953Z,72.89
2022-10-23T04:00:08.050Z,72.86
2022-10-23T04:02:43.381Z,72.69
2022-10-23T04:05:10.387Z,72.91
2022-10-23T04:07:39.344Z,72.71
2022-10-23T04:10:07.084Z,72.96
2022-10-23T04:12:36.984Z,73.24
2022-10-23T04:15:04.001Z,72.98
2022-10-23T04:17:30.588Z,73.39
2022-10-23T04:19:57.184Z,73.09
2022-10-23T04:22:26.091Z,73.19
2022-10-23T04:24:54.975Z,73.42
2022-10-23T04:27:21.846Z,73.55
2022-10-23T04:29:49.268Z,73.43
2022-10-23T04:32:15.943Z,73.55
2022-10-23T04:34:44.025Z,73.53
2022-10-23T04:37:10.591Z,73.55
2022-10-23T04:39:38.094Z,72.83
2022-10-23T04:42:04.827Z,73.56
2022-10-23T04:44:31.403Z,73.24
2022-10-23T04:46:57.954Z,72.95
2022-10-23T04:49:24.529Z,72.74
2022-10-23T04:52:11.511Z,72.89
2022-10-23T04:54:58.293Z,73.08
2022-10-23T04:57:39.140Z,72.87
2022-10-23T05:00:10.145Z,72.47
2022-10-23T05:02:44.160Z,72.43
2022-10-23T05:05:13.716Z,72.35
2022-10-23T05:08:00.645Z,72.38
2022-10-23T05:10:59.230Z,72.94
2022-10-23T05:13:25.837Z,73.00
2022-10-23T05:15:53.651Z,72.56
2022-10-23T05:18:27.304Z,72.91
2022-10-23T05:21:00.764Z,72.97
2022-10-23T05:23:29.457Z,72.83
2022-10-23T05:26:00.534Z,72.98
2022-10-23T05:28:30.244Z,73.51
2022-10-23T05:30:59.992Z,73.29
2022-10-23T05:33:29.801Z,73.64
2022-10-23T05:35:57.051Z,73.85
2022-10-23T05:38:26.264Z,73.49
2022-10-23T05:40:53.604Z,73.81
2022-10-23T05:43:22.172Z,73.44
2022-10-23T05:46:23.070Z,73.24
2022-10-23T05:49:08.101Z,72.96
2022-10-23T05:52:00.079Z,72.77
2022-10-23T05:54:35.886Z,72.59
2022-10-23T05:57:21.151Z,72.51
2022-10-23T05:59:50.238Z,72.50
2022-10-23T06:02:39.762Z,72.64
2022-10-23T06:05:15.843Z,72.85
2022-10-23T06:07:42.707Z,72.91
2022-10-23T06:10:10.327Z,73.02
2022-10-23T06:12:40.720Z,73.15
2022-10-23T06:15:11.170Z,72.89
2022-10-23T06:18:05.395Z,73.32
2022-10-23T06:20:37.296Z,73.25
2022-10-23T06:23:15.589Z,73.16
2022-10-23T06:26:16.171Z,72.94
2022-10-23T06:29:01.379Z,73.03
2022-10-23T06:31:28.410Z,72.88
2022-10-23T06:33:58.358Z,73.04
2022-10-23T06:36:25.871Z,73.32
2022-10-23T06:41:49.517Z,72.98
2022-10-23T06:44:36.041Z,73.05
2022-10-23T06:47:10.738Z,72.52
2022-10-23T06:49:56.518Z,72.98
2022-10-23T06:52:45.454Z,73.13
2022-10-23T06:55:13.782Z,72.82
2022-10-23T06:57:41.391Z,72.44
2022-10-23T07:00:08.970Z,72.41
2022-10-23T07:02:43.394Z,72.38
2022-10-23T07:05:13.502Z,72.59
2022-10-23T07:07:42.405Z,72.35
2022-10-23T07:10:10.270Z,71.84
2022-10-23T07:12:42.679Z,71.98
2022-10-23T07:15:39.654Z,71.34
2022-10-23T07:18:14.574Z,70.89
2022-10-23T07:21:01.491Z,70.63
2022-10-23T07:23:29.468Z,70.28
2022-10-23T07:25:56.246Z,70.28
2022-10-23T07:28:23.489Z,70.27
2022-10-23T07:30:58.054Z,70.17
2022-10-23T07:33:27.183Z,69.65
2022-10-23T07:36:00.582Z,68.92
2022-10-23T07:38:28.462Z,68.79
2022-10-23T07:40:57.745Z,68.94
2022-10-23T07:43:25.457Z,69.19
2022-10-23T07:45:53.509Z,68.77
2022-10-23T07:48:27.820Z,68.50
2022-10-23T07:51:03.210Z,68.01
2022-10-23T07:53:31.131Z,67.61
2022-10-23T07:56:16.858Z,67.53
2022-10-23T07:59:02.414Z,67.03
2022-10-23T08:01:35.040Z,66.78
2022-10-23T08:04:03.397Z,66.29
2022-10-23T08:06:30.873Z,65.16
2022-10-23T08:08:59.962Z,65.24
2022-10-23T08:11:37.592Z,64.65
2022-10-23T08:14:08.340Z,64.89
2022-10-23T08:16:38.391Z,64.12
2022-10-23T08:19:17.153Z,64.13
2022-10-23T08:21:45.545Z,63.99
2022-10-23T08:24:13.930Z,63.67
2022-10-23T08:26:42.830Z,63.68
2022-10-23T08:29:11.600Z,63.92
2022-10-23T08:31:38.588Z,62.84
2022-10-23T08:34:11.449Z,63.04
2022-10-23T08:36:39.281Z,61.95
2022-10-23T08:39:06.927Z,62.59
2022-10-23T08:41:41.608Z,62.55
2022-10-23T08:44:36.637Z,63.39
2022-10-23T08:47:12.928Z,62.24
2022-10-23T08:50:08.306Z,61.96
2022-10-23T08:52:37.723Z,61.33
2022-10-23T08:55:06.793Z,60.83
2022-10-23T08:57:43.979Z,59.73
2022-10-23T09:00:16.055Z,60.13
2022-10-23T09:02:51.442Z,59.61
2022-10-23T09:05:39.578Z,59.09
2022-10-23T09:08:13.045Z,59.22
2022-10-23T09:11:02.338Z,58.20
2022-10-23T09:13:31.923Z,57.94
2022-10-23T09:16:01.797Z,57.06
2022-10-23T09:18:31.108Z,56.42
2022-10-23T09:20:57.838Z,55.72
2022-10-23T09:23:24.758Z,54.98
2022-10-23T09:25:56.872Z,54.28
2022-10-23T09:28:31.530Z,53.89
2022-10-23T09:31:09.319Z,53.35
2022-10-23T09:33:37.094Z,52.52
2022-10-23T09:36:07.128Z,52.42
2022-10-23T09:38:40.048Z,51.03
2022-10-23T09:41:14.459Z,51.04
2022-10-23T09:43:41.013Z,50.80
2022-10-23T09:46:09.763Z,50.28
2022-10-23T09:48:40.574Z,49.79
2022-10-23T09:51:13.542Z,50.82
2022-10-23T09:53:47.084Z,51.60
2022-10-23T09:56:35.566Z,52.22
2022-10-23T09:59:06.786Z,52.06
2022-10-23T10:01:48.767Z,51.58
2022-10-23T10:04:41.069Z,51.21
2022-10-23T10:07:26.147Z,50.94
2022-10-23T10:09:55.281Z,51.89
2022-10-23T10:12:31.365Z,52.26
2022-10-23T10:15:36.890Z,52.63
2022-10-23T10:18:15.059Z,53.63
2022-10-23T10:20:47.620Z,53.39
2022-10-23T10:23:29.994Z,53.59
2022-10-23T10:26:27.442Z,54.00
2022-10-23T10:29:45.685Z,53.92
2022-10-23T10:32:33.613Z,53.81
2022-10-23T10:35:12.386Z,54.32
2022-10-23T10:37:50.835Z,53.68
2022-10-23T10:40:25.795Z,53.81
2022-10-23T10:43:20.434Z,53.08
2022-10-23T10:45:48.965Z,52.23
2022-10-23T10:48:21.598Z,52.69
2022-10-23T10:51:13.336Z,51.86
2022-10-23T10:54:10.174Z,50.04
2022-10-23T10:56:41.675Z,45.08
2022-10-23T10:59:23.378Z,44.10
2022-10-23T11:02:02.019Z,41.94
2022-10-23T11:04:54.584Z,40.72
2022-10-23T11:07:24.200Z,40.34
2022-10-23T11:09:50.797Z,40.38
2022-10-23T11:12:21.771Z,41.38
2022-10-23T11:14:49.877Z,42.05
2022-10-23T11:17:26.694Z,43.07
2022-10-23T11:20:12.275Z,40.48
2022-10-23T11:23:04.471Z,41.39
2022-10-23T11:26:02.384Z,42.55
2022-10-23T11:28:56.602Z,43.32
2022-10-23T11:31:53.716Z,43.46
2022-10-23T11:34:47.107Z,39.73
2022-10-23T11:37:19.368Z,35.73
2022-10-23T11:40:07.740Z,32.07
2022-10-23T11:42:40.182Z,31.51
2022-10-23T11:45:33.614Z,32.04
2022-10-23T11:48:00.355Z,35.07
2022-10-23T11:50:31.788Z,35.28
2022-10-23T11:53:15.049Z,34.51
2022-10-23T11:56:03.525Z,33.18
2022-10-23T11:58:50.539Z,33.82
2022-10-23T12:01:38.929Z,34.03
2022-10-23T12:04:14.572Z,31.67
2022-10-23T12:06:59.932Z,27.52
2022-10-23T12:09:31.903Z,26.60
2022-10-23T12:12:33.977Z,24.77
2022-10-23T12:15:19.128Z,25.17
2022-10-23T12:17:47.606Z,23.98
2022-10-23T12:20:29.132Z,23.27
2022-10-23T12:23:11.151Z,26.08
2022-10-23T12:25:43.624Z,29.24
2022-10-23T12:28:32.931Z,31.33
2022-10-23T12:30:59.498Z,32.45
2022-10-23T12:33:29.353Z,34.94
2022-10-23T12:36:26.092Z,36.11
2022-10-23T12:38:54.746Z,37.72
2022-10-23T12:41:27.010Z,38.02
2022-10-23T12:43:57.704Z,39.58
2022-10-23T12:46:34.621Z,38.74
2022-10-23T12:49:13.054Z,39.81
2022-10-23T12:51:39.720Z,40.94
2022-10-23T12:54:18.413Z,40.26
2022-10-23T12:56:45.838Z,40.96
2022-10-23T12:59:18.332Z,41.29
2022-10-23T13:01:47.938Z,42.12
2022-10-23T13:04:23.379Z,41.31
2022-10-23T13:06:51.686Z,42.01
2022-10-23T13:09:24.205Z,42.77
2022-10-23T13:12:22.457Z,43.12
2022-10-23T13:15:17.523Z,43.05
2022-10-23T13:17:47.398Z,42.61
2022-10-23T13:20:17.171Z,42.11
2022-10-23T13:22:49.749Z,42.69
2022-10-23T13:25:29.454Z,42.46
2022-10-23T13:28:05.145Z,41.48
2022-10-23T13:30:35.259Z,42.60
2022-10-23T13:33:02.273Z,43.03
2022-10-23T13:35:28.981Z,43.66
2022-10-23T13:37:55.744Z,43.70
2022-10-23T13:40:26.439Z,44.00
2022-10-23T13:42:56.309Z,44.02
2022-10-23T13:45:25.734Z,44.06
2022-10-23T13:47:52.903Z,43.89
2022-10-23T13:50:19.808Z,43.59
2022-10-23T13:52:48.022Z,44.44
2022-10-23T13:55:24.637Z,43.56
2022-10-23T13:57:51.630Z,43.80
2022-10-23T14:00:19.281Z,43.95
2022-10-23T14:02:46.202Z,44.22
2022-10-23T14:05:13.120Z,44.17
2022-10-23T14:07:39.839Z,44.85
2022-10-23T14:10:06.928Z,44.83
2022-10-23T14:12:43.217Z,44.75
2022-10-23T14:15:11.854Z,45.03
2022-10-23T14:17:39.158Z,45.27
2022-10-23T14:20:06.877Z,45.81
2022-10-23T14:22:33.909Z,46.46
2022-10-23T14:25:00.647Z,46.91
2022-10-23T14:27:30.476Z,47.13
2022-10-23T14:29:57.467Z,47.61
2022-10-23T14:32:24.250Z,47.49
2022-10-23T14:34:53.321Z,48.42
2022-10-23T14:37:20.956Z,47.92
2022-10-23T14:39:50.152Z,48.47
2022-10-23T14:42:18.002Z,49.11
2022-10-23T14:44:44.997Z,49.10
2022-10-23T14:47:12.122Z,48.95
2022-10-23T14:49:40.222Z,49.73
2022-10-23T14:52:08.026Z,49.47
2022-10-23T14:54:36.248Z,49.65
2022-10-23T14:57:03.947Z,49.59
2022-10-23T14:59:30.780Z,48.89
2022-10-23T15:01:57.651Z,48.77
2022-10-23T15:04:24.675Z,49.02
2022-10-23T15:06:51.388Z,49.40
2022-10-23T15:09:19.949Z,50.08
2022-10-23T15:11:47.607Z,50.34
2022-10-23T15:14:14.168Z,51.08
2022-10-23T15:16:42.036Z,51.18
2022-10-23T15:19:17.142Z,51.38
2022-10-23T15:21:47.010Z,51.93
2022-10-23T15:24:14.461Z,51.61
2022-10-23T15:26:43.292Z,51.56
2022-10-23T15:29:11.438Z,51.37
2022-10-23T15:31:38.010Z,51.11
2022-10-23T15:34:05.924Z,51.83
2022-10-23T15:36:32.960Z,52.21
2022-10-23T15:39:00.004Z,52.26
2022-10-23T15:41:34.118Z,52.16
2022-10-23T15:44:02.507Z,53.00
2022-10-23T15:46:29.991Z,53.01
2022-10-23T15:48:57.163Z,53.29
2022-10-23T15:51:25.775Z,53.41
2022-10-23T15:53:52.632Z,53.99
2022-10-23T15:56:19.327Z,54.17
2022-10-23T15:58:46.657Z,54.07
2022-10-23T16:01:13.704Z,55.09
2022-10-23T16:03:40.594Z,55.09
2022-10-23T16:06:12.534Z,55.49
2022-10-23T16:08:40.439Z,55.82
2022-10-23T16:11:18.784Z,56.22
2022-10-23T16:13:45.920Z,56.18
2022-10-23T16:16:13.180Z,56.30
2022-10-23T16:18:40.595Z,57.11
2022-10-23T16:21:08.503Z,57.08
2022-10-23T16:23:35.158Z,57.76
2022-10-23T16:26:04.253Z,57.86
2022-10-23T16:28:31.781Z,57.52
2022-10-23T16:30:58.633Z,58.13
2022-10-23T16:33:25.378Z,57.97
2022-10-23T16:35:52.444Z,57.56
2022-10-23T16:38:22.330Z,58.08
2022-10-23T16:40:55.147Z,58.08
2022-10-23T16:43:40.080Z,58.04
2022-10-23T16:46:20.298Z,58.13
2022-10-23T16:48:47.606Z,58.08
2022-10-23T16:51:16.956Z,58.00
2022-10-23T16:53:44.289Z,58.46
2022-10-23T16:56:13.266Z,58.39
2022-10-23T16:58:40.898Z,58.24
2022-10-23T17:01:19.295Z,58.36
2022-10-23T17:03:48.679Z,58.41
2022-10-23T17:06:18.338Z,58.26
2022-10-23T17:08:45.221Z,57.81
2022-10-23T17:11:15.437Z,57.97
2022-10-23T17:13:47.828Z,57.72
2022-10-23T17:16:18.836Z,58.21
2022-10-23T17:18:46.465Z,58.32
2022-10-23T17:21:14.680Z,58.25
2022-10-23T17:23:42.064Z,59.11
2022-10-23T17:26:12.420Z,59.13
2022-10-23T17:28:43.001Z,59.70
2022-10-23T17:31:19.342Z,59.54
2022-10-23T17:33:47.115Z,59.24
2022-10-23T17:36:16.211Z,58.87
2022-10-23T17:38:46.378Z,59.55
2022-10-23T17:41:15.619Z,59.77
2022-10-23T17:43:42.438Z,60.40
2022-10-23T17:46:10.696Z,60.78
2022-10-23T17:48:39.517Z,60.96
2022-10-23T17:51:10.167Z,62.13
2022-10-23T17:53:41.100Z,62.37
2022-10-23T17:56:12.086Z,64.42
2022-10-23T17:58:39.385Z,64.66
2022-10-23T18:01:13.253Z,64.44
2022-10-23T18:03:40.308Z,65.09
2022-10-23T18:06:13.641Z,65.43
2022-10-23T18:08:41.430Z,65.11
2022-10-23T18:11:13.797Z,65.00
2022-10-23T18:13:40.516Z,65.13
2022-10-23T18:16:11.264Z,64.86
2022-10-23T18:18:39.500Z,64.95
2022-10-23T18:21:07.188Z,65.83
2022-10-23T18:23:34.857Z,66.55
2022-10-23T18:26:03.615Z,66.68
2022-10-23T18:28:31.295Z,67.03
2022-10-23T18:30:57.949Z,66.70
2022-10-23T18:33:24.570Z,66.63
2022-10-23T18:35:51.170Z,66.57
2022-10-23T18:38:17.784Z,65.98
2022-10-23T18:40:44.818Z,66.20
2022-10-23T18:43:14.887Z,65.87
2022-10-23T18:45:42.914Z,65.65
2022-10-23T18:48:09.506Z,66.06
2022-10-23T18:50:37.540Z,65.85
2022-10-23T18:53:04.276Z,65.77
2022-10-23T18:58:00.421Z,66.45
2022-10-23T19:00:27.084Z,66.82
2022-10-23T19:02:53.796Z,67.11
2022-10-23T19:05:20.589Z,67.80
2022-10-23T19:07:48.817Z,67.76
2022-10-23T19:10:17.926Z,68.22
2022-10-23T19:12:44.933Z,68.95
2022-10-23T19:15:12.039Z,69.02
2022-10-23T19:17:38.747Z,69.26
2022-10-23T19:20:10.996Z,70.09
2022-10-23T19:22:41.012Z,70.04
2022-10-23T19:25:15.704Z,70.14
2022-10-23T19:27:44.786Z,70.32
2022-10-23T19:30:16.291Z,70.32
2022-10-23T19:32:46.582Z,71.20
2022-10-23T19:35:15.600Z,71.94
2022-10-23T19:37:43.458Z,72.21
2022-10-23T19:40:11.289Z,72.30
2022-10-23T19:42:40.064Z,72.75
2022-10-23T19:45:09.132Z,73.08
2022-10-23T19:47:36.538Z,72.64
2022-10-23T19:50:05.184Z,72.40
2022-10-23T19:52:31.967Z,72.35
2022-10-23T19:54:58.573Z,72.02
2022-10-23T19:57:25.232Z,72.04
2022-10-23T19:59:52.424Z,72.05
2022-10-23T20:02:20.752Z,72.02
2022-10-23T20:04:47.576Z,72.34
2022-10-23T20:07:14.192Z,71.86
2022-10-23T20:09:41.151Z,72.27
2022-10-23T20:12:08.108Z,72.32
2022-10-23T20:14:34.719Z,72.47
2022-10-23T20:17:02.536Z,72.74
2022-10-23T20:19:30.400Z,72.20
2022-10-23T20:21:57.225Z,72.31
2022-10-23T20:24:23.820Z,72.08
2022-10-23T20:26:53.481Z,72.34
2022-10-23T20:29:20.509Z,71.83
2022-10-23T20:31:48.070Z,71.81
2022-10-23T20:34:14.740Z,71.47
2022-10-23T20:36:46.841Z,71.79
2022-10-23T20:39:21.064Z,71.65
2022-10-23T20:41:47.942Z,71.55
2022-10-23T20:46:49.199Z,71.82
2022-10-23T20:49:16.840Z,71.80
2022-10-23T20:51:43.494Z,71.81
2022-10-23T20:54:10.170Z,71.89
2022-10-23T20:56:38.239Z,71.54
2022-10-23T20:59:07.402Z,71.59
2022-10-23T21:01:34.651Z,71.84
2022-10-23T21:04:02.719Z,71.45
2022-10-23T21:06:45.687Z,71.40
2022-10-23T21:09:19.055Z,71.17
2022-10-23T21:11:45.896Z,71.18
2022-10-23T21:14:12.923Z,71.25
2022-10-23T21:16:44.224Z,70.85
2022-10-23T21:19:13.606Z,70.90
2022-10-23T21:21:40.229Z,70.63
2022-10-23T21:24:09.710Z,70.36
2022-10-23T21:26:36.930Z,70.25
2022-10-23T21:29:17.967Z,70.39
2022-10-23T21:31:45.879Z,69.94
2022-10-23T21:34:12.554Z,69.41
2022-10-23T21:36:53.856Z,69.15
2022-10-23T21:39:28.739Z,69.01
2022-10-23T21:41:55.285Z,69.19
2022-10-23T21:44:21.906Z,69.09
2022-10-23T21:46:48.545Z,68.79
2022-10-23T21:49:15.128Z,68.28
2022-10-23T21:51:41.788Z,68.39
2022-10-23T21:54:12.447Z,67.93
2022-10-23T21:56:40.515Z,68.12
2022-10-23T21:59:12.720Z,68.08
2022-10-23T22:01:41.243Z,67.11
2022-10-23T22:04:07.971Z,67.70
2022-10-23T22:06:34.611Z,67.52
2022-10-23T22:09:01.626Z,67.07
2022-10-23T22:11:28.375Z,66.55
2022-10-23T22:13:55.803Z,66.77
2022-10-23T22:16:22.760Z,66.67
2022-10-23T22:18:49.730Z,66.92
2022-10-23T22:21:19.933Z,66.58
2022-10-23T22:23:49.283Z,66.93
2022-10-23T22:26:35.487Z,67.09
2022-10-23T22:29:05.881Z,67.17
2022-10-23T22:31:34.363Z,66.98
2022-10-23T22:34:13.111Z,66.94
2022-10-23T22:36:48.989Z,67.64
2022-10-23T22:39:15.895Z,67.73
2022-10-23T22:41:43.657Z,67.84
2022-10-23T22:44:11.881Z,67.82
2022-10-23T22:46:38.470Z,67.84
2022-10-23T22:51:32.894Z,68.10
2022-10-23T22:54:00.406Z,67.54
2022-10-23T22:56:30.293Z,67.24
2022-10-23T22:58:57.679Z,67.67
2022-10-23T23:01:31.639Z,67.63
2022-10-23T23:04:08.668Z,67.06
2022-10-23T23:06:45.783Z,66.75
2022-10-23T23:09:17.043Z,66.38
2022-10-23T23:11:51.240Z,66.20
2022-10-23T23:14:22.097Z,65.68
2022-10-23T23:16:51.509Z,65.91
2022-10-23T23:19:18.085Z,66.30
2022-10-23T23:21:44.837Z,66.45
2022-10-23T23:24:11.944Z,66.90
2022-10-23T23:26:38.802Z,66.81
2022-10-23T23:29:05.521Z,66.55
2022-10-23T23:31:32.047Z,67.09
2022-10-23T23:33:58.583Z,66.45
2022-10-23T23:36:27.209Z,66.80
2022-10-23T23:38:55.920Z,66.65
2022-10-23T23:41:23.208Z,66.51
2022-10-23T23:43:50.029Z,66.64
2022-10-23T23:46:17.754Z,66.72
2022-10-23T23:48:47.959Z,66.84
2022-10-23T23:51:15.897Z,66.84
2022-10-23T23:53:42.619Z,66.46
2022-10-23T23:56:09.562Z,66.67
2022-10-23T23:58:36.447Z,66.34
